An Run Da 2 — BHNX — position and weather

sailwx.info

Track history (hours):
 
Tides and Currents Weather Stations Pressure Air Temp Water Temp Dewpoint Dewpoint Depression Visibility Wind Speed Wind Dir Waves Ship Positions

An Run Da 2

Last reported at 2015-Mar-06 07:25 UTC. Time now 2015-Mar-28 09:23 UTC.
Position N 23°32' E 117°43'.
Warning: this ship's position is 22 days out of date.

Length 147 m; draft 7.7 m.

Type: Cargo ship. MMSI: 413360230.

Date/timePositionNaut miles runAvg speedWind from/ knotsBaromVisibWave heightAir tempDewpointWater temp
2015-Mar-06 07:25N 23°32' E 117°43'1011.5
2015-Mar-06 06:32N 23°39' E 117°52'1111.0
2015-Mar-06 05:32N 23°45' E 118°01'1210.7
2015-Mar-06 04:25N 23°54' E 118°10'1010.5
2015-Mar-06 03:26N 24°01' E 118°19'910.2
2015-Mar-06 02:32N 24°07' E 118°26'21 9.4
2015-Mar-06 00:18N 24°21' E 118°43'35810.5
2015-Mar-04 14:11N 29°17' E 122°28'710.0
2015-Mar-04 13:29N 29°23' E 122°31'14 9.9
2015-Mar-04 12:06N 29°37' E 122°35'610.2
2015-Mar-04 11:33N 29°42' E 122°37'1110.3
2015-Mar-04 10:31N 29°52' E 122°38'1111.2
2015-Mar-04 09:33N 30°03' E 122°38'1211.8
2015-Mar-04 08:31N 30°16' E 122°37'2411.6
2015-Mar-04 06:28N 30°39' E 122°39'28 9.6
2015-Mar-04 03:31N 31°05' E 122°26'9 9.1
2015-Mar-04 02:33N 31°07' E 122°16'8 7.5
2015-Mar-04 01:33N 31°12' E 122°09'7 7.0
2015-Mar-04 00:33N 31°14' E 122°01'10 9.9
2015-Mar-03 23:33N 31°17' E 121°50'1111.4
2015-Mar-03 22:33N 31°22' E 121°38'1211.7
2015-Mar-03 21:34N 31°28' E 121°27'1010.2
2015-Mar-03 20:34N 31°35' E 121°18'1010.1
2015-Mar-03 19:33N 31°42' E 121°09'16 8.0
2015-Mar-03 17:33N 31°51' E 120°54'8 8.1
2015-Mar-03 16:32N 31°59' E 120°50'9 9.2
2015-Mar-03 15:34N 31°60' E 120°39'1110.6
2015-Mar-03 14:33N 32°04' E 120°28'9 9.4
2015-Mar-03 13:33N 31°58' E 120°19'1110.8
2015-Mar-03 12:33N 31°57' E 120°07'1111.1
2015-Mar-03 11:32N 32°03' E 119°56'  
Track history (hours):
 
Tides and Currents Weather Stations Pressure Air Temp Water Temp Dewpoint Dewpoint Depression Visibility Wind Speed Wind Dir Waves Ship Positions

An Run Da 2

Last reported at 2015-Mar-06 07:25 UTC. Time now 2015-Mar-28 09:23 UTC.
Position N 23°32' E 117°43'.
Warning: this ship's position is 22 days out of date.

Length 147 m; draft 7.7 m.

Type: Cargo ship. MMSI: 413360230.

Date/timePositionNaut miles runAvg speedWind from/ knotsBaromVisibWave heightAir tempDewpointWater temp
2015-Mar-06 07:25N 23°32' E 117°43'1011.5
2015-Mar-06 06:32N 23°39' E 117°52'1111.0
2015-Mar-06 05:32N 23°45' E 118°01'1210.7
2015-Mar-06 04:25N 23°54' E 118°10'1010.5
2015-Mar-06 03:26N 24°01' E 118°19'910.2
2015-Mar-06 02:32N 24°07' E 118°26'21 9.4
2015-Mar-06 00:18N 24°21' E 118°43'35810.5
2015-Mar-04 14:11N 29°17' E 122°28'710.0
2015-Mar-04 13:29N 29°23' E 122°31'14 9.9
2015-Mar-04 12:06N 29°37' E 122°35'610.2
2015-Mar-04 11:33N 29°42' E 122°37'1110.3
2015-Mar-04 10:31N 29°52' E 122°38'1111.2
2015-Mar-04 09:33N 30°03' E 122°38'1211.8
2015-Mar-04 08:31N 30°16' E 122°37'2411.6
2015-Mar-04 06:28N 30°39' E 122°39'28 9.6
2015-Mar-04 03:31N 31°05' E 122°26'9 9.1
2015-Mar-04 02:33N 31°07' E 122°16'8 7.5
2015-Mar-04 01:33N 31°12' E 122°09'7 7.0
2015-Mar-04 00:33N 31°14' E 122°01'10 9.9
2015-Mar-03 23:33N 31°17' E 121°50'1111.4
2015-Mar-03 22:33N 31°22' E 121°38'1211.7
2015-Mar-03 21:34N 31°28' E 121°27'1010.2
2015-Mar-03 20:34N 31°35' E 121°18'1010.1
2015-Mar-03 19:33N 31°42' E 121°09'16 8.0
2015-Mar-03 17:33N 31°51' E 120°54'8 8.1
2015-Mar-03 16:32N 31°59' E 120°50'9 9.2
2015-Mar-03 15:34N 31°60' E 120°39'1110.6
2015-Mar-03 14:33N 32°04' E 120°28'9 9.4
2015-Mar-03 13:33N 31°58' E 120°19'1110.8
2015-Mar-03 12:33N 31°57' E 120°07'1111.1
2015-Mar-03 11:32N 32°03' E 119°56'  

Dump ship's entire track history